createdAt,value
2023-04-10T00:00:11.534Z,28.83
2023-04-10T00:02:38.879Z,32.23
2023-04-10T00:05:08.003Z,26.33
2023-04-10T00:07:35.751Z,29.00
2023-04-10T00:10:03.116Z,32.10
2023-04-10T00:12:30.671Z,33.07
2023-04-10T00:14:58.289Z,25.30
2023-04-10T00:17:25.745Z,26.77
2023-04-10T00:19:52.965Z,24.73
2023-04-10T00:22:20.852Z,24.53
2023-04-10T00:24:48.252Z,28.23
2023-04-10T00:27:15.555Z,27.10
2023-04-10T00:29:42.796Z,25.53
2023-04-10T00:32:10.374Z,23.33
2023-04-10T00:34:37.602Z,28.23
2023-04-10T00:37:04.841Z,28.37
2023-04-10T00:39:32.068Z,25.67
2023-04-10T00:42:01.464Z,25.47
2023-04-10T00:44:28.891Z,28.03
2023-04-10T00:46:56.314Z,24.93
2023-04-10T00:49:24.172Z,28.27
2023-04-10T00:51:52.394Z,26.30
2023-04-10T00:54:19.852Z,31.20
2023-04-10T00:56:48.644Z,29.43
2023-04-10T00:59:16.328Z,31.70
2023-04-10T01:01:46.010Z,29.40
2023-04-10T01:04:14.386Z,31.93
2023-04-10T01:07:11.977Z,31.07
2023-04-10T01:09:47.401Z,31.30
2023-04-10T01:12:40.655Z,28.90
2023-04-10T01:15:12.450Z,25.60
2023-04-10T01:17:46.057Z,30.80
2023-04-10T01:20:19.077Z,30.73
2023-04-10T01:23:11.077Z,29.80
2023-04-10T01:25:59.019Z,28.07
2023-04-10T01:28:53.201Z,29.30
2023-04-10T01:31:28.228Z,28.23
2023-04-10T01:34:01.032Z,31.07
2023-04-10T01:36:34.910Z,26.10
2023-04-10T01:39:04.213Z,25.83
2023-04-10T01:41:34.045Z,25.67
2023-04-10T01:44:03.863Z,28.27
2023-04-10T01:46:32.689Z,26.37
2023-04-10T01:49:01.996Z,25.43
2023-04-10T01:51:32.553Z,23.77
2023-04-10T01:54:04.634Z,28.73
2023-04-10T01:56:34.397Z,25.03
2023-04-10T01:59:03.640Z,29.13
2023-04-10T02:01:31.309Z,29.03
2023-04-10T02:03:59.410Z,25.03
2023-04-10T02:06:37.570Z,27.50
2023-04-10T02:09:15.893Z,25.00
2023-04-10T02:12:01.589Z,25.73
2023-04-10T02:14:32.410Z,23.57
2023-04-10T02:17:02.548Z,25.07
2023-04-10T02:19:31.918Z,23.70
2023-04-10T02:21:59.818Z,26.20
2023-04-10T02:24:27.439Z,25.50
2023-04-10T02:26:54.876Z,23.60
2023-04-10T02:29:23.696Z,24.00
2023-04-10T02:31:50.959Z,25.63
2023-04-10T02:34:19.946Z,23.70
2023-04-10T02:36:47.132Z,29.17
2023-04-10T02:39:15.360Z,24.27
2023-04-10T02:41:51.691Z,24.67
2023-04-10T02:44:19.064Z,25.40
2023-04-10T02:46:47.068Z,21.43
2023-04-10T02:49:15.823Z,22.43
2023-04-10T02:51:43.080Z,23.57
2023-04-10T02:54:10.680Z,26.07
2023-04-10T02:56:40.010Z,22.90
2023-04-10T02:59:07.956Z,22.27
2023-04-10T03:01:35.825Z,23.70
2023-04-10T03:04:03.953Z,24.60
2023-04-10T03:06:36.500Z,24.97
2023-04-10T03:09:06.435Z,23.07
2023-04-10T03:11:34.526Z,23.50
2023-04-10T03:14:01.848Z,23.07
2023-04-10T03:16:29.410Z,21.93
2023-04-10T03:18:57.908Z,22.33
2023-04-10T03:21:25.497Z,22.80
2023-04-10T03:23:53.101Z,25.00
2023-04-10T03:26:21.320Z,21.50
2023-04-10T03:28:49.178Z,25.37
2023-04-10T03:31:16.597Z,24.30
2023-04-10T03:33:46.226Z,22.63
2023-04-10T03:36:14.144Z,26.27
2023-04-10T03:38:41.374Z,22.17
2023-04-10T03:41:10.046Z,25.50
2023-04-10T03:43:39.529Z,23.73
2023-04-10T03:46:07.291Z,22.27
2023-04-10T03:48:41.486Z,25.07
2023-04-10T03:51:08.736Z,24.30
2023-04-10T03:53:36.358Z,21.63
2023-04-10T03:56:08.623Z,22.27
2023-04-10T03:58:37.783Z,22.60
2023-04-10T04:01:05.800Z,20.60
2023-04-10T04:03:52.904Z,23.37
2023-04-10T04:06:48.685Z,23.43
2023-04-10T04:09:34.872Z,22.17
2023-04-10T04:12:15.965Z,19.33
2023-04-10T04:15:03.220Z,18.43
2023-04-10T04:17:52.056Z,23.13
2023-04-10T04:20:38.212Z,22.97
2023-04-10T04:23:28.829Z,21.97
2023-04-10T04:26:15.340Z,19.73
2023-04-10T04:29:01.013Z,23.37
2023-04-10T04:31:47.488Z,23.23
2023-04-10T04:34:46.202Z,20.57
2023-04-10T04:37:25.219Z,23.63
2023-04-10T04:40:16.468Z,22.50
2023-04-10T04:42:59.341Z,22.60
2023-04-10T04:45:59.689Z,22.73
2023-04-10T04:48:59.432Z,21.30
2023-04-10T04:51:42.719Z,23.50
2023-04-10T04:54:24.611Z,18.17
2023-04-10T04:57:09.793Z,21.97
2023-04-10T05:00:10.083Z,22.77
2023-04-10T05:03:04.202Z,22.60
2023-04-10T05:05:56.910Z,19.77
2023-04-10T05:08:56.896Z,21.90
2023-04-10T05:11:31.196Z,21.00
2023-04-10T05:14:22.034Z,20.53
2023-04-10T05:17:03.323Z,21.93
2023-04-10T05:20:01.143Z,22.20
2023-04-10T05:22:47.017Z,21.43
2023-04-10T05:25:35.733Z,19.70
2023-04-10T05:28:18.189Z,18.30
2023-04-10T05:31:04.655Z,18.97
2023-04-10T05:33:47.813Z,18.80
2023-04-10T05:36:33.676Z,18.80
2023-04-10T05:39:17.381Z,16.00
2023-04-10T05:42:03.415Z,17.80
2023-04-10T05:44:45.837Z,17.77
2023-04-10T05:47:31.680Z,19.00
2023-04-10T05:50:13.245Z,16.20
2023-04-10T05:52:59.397Z,18.97
2023-04-10T05:55:45.366Z,18.00
2023-04-10T05:58:26.854Z,21.00
2023-04-10T06:01:25.118Z,17.80
2023-04-10T06:04:03.028Z,18.63
2023-04-10T06:06:33.606Z,17.80
2023-04-10T06:09:00.974Z,18.43
2023-04-10T06:11:28.813Z,18.07
2023-04-10T06:13:57.815Z,16.77
2023-04-10T06:16:32.767Z,16.97
2023-04-10T06:19:01.032Z,20.20
2023-04-10T06:21:29.363Z,16.87
2023-04-10T06:23:56.864Z,17.00
2023-04-10T06:26:25.516Z,16.80
2023-04-10T06:28:53.480Z,17.23
2023-04-10T06:31:24.384Z,19.00
2023-04-10T06:33:51.722Z,20.10
2023-04-10T06:36:19.260Z,15.97
2023-04-10T06:38:57.581Z,17.57
2023-04-10T06:41:25.647Z,16.90
2023-04-10T06:43:55.292Z,17.43
2023-04-10T06:46:22.555Z,14.80
2023-04-10T06:48:49.777Z,15.00
2023-04-10T06:51:17.258Z,15.97
2023-04-10T06:53:44.480Z,15.63
2023-04-10T06:56:11.978Z,16.30
2023-04-10T06:58:39.191Z,16.87
2023-04-10T07:01:06.714Z,18.07
2023-04-10T07:03:34.450Z,17.43
2023-04-10T07:06:03.211Z,15.23
2023-04-10T07:08:31.084Z,16.40
2023-04-10T07:10:59.097Z,17.20
2023-04-10T07:13:27.345Z,15.60
2023-04-10T07:15:54.766Z,15.50
2023-04-10T07:18:22.694Z,16.50
2023-04-10T07:20:51.428Z,16.80
2023-04-10T07:23:19.602Z,16.13
2023-04-10T07:25:46.967Z,14.53
2023-04-10T07:28:14.262Z,16.00
2023-04-10T07:30:41.819Z,13.87
2023-04-10T07:33:09.279Z,16.63
2023-04-10T07:35:37.182Z,12.07
2023-04-10T07:38:05.009Z,9.83
2023-04-10T07:40:32.431Z,14.00
2023-04-10T07:42:59.615Z,11.80
2023-04-10T07:45:28.530Z,13.53
2023-04-10T07:47:55.884Z,12.67
2023-04-10T07:50:23.916Z,12.83
2023-04-10T07:52:51.498Z,12.20
2023-04-10T07:55:18.988Z,12.23
2023-04-10T07:57:46.570Z,12.73
2023-04-10T08:00:14.487Z,13.50
2023-04-10T08:02:43.309Z,11.83
2023-04-10T08:05:10.863Z,12.87
2023-04-10T08:07:38.739Z,12.37
2023-04-10T08:10:06.800Z,12.90
2023-04-10T08:12:34.574Z,12.60
2023-04-10T08:15:01.880Z,11.67
2023-04-10T08:17:30.360Z,11.20
2023-04-10T08:19:57.685Z,11.20
2023-04-10T08:22:25.078Z,11.00
2023-04-10T08:24:52.408Z,12.30
2023-04-10T08:27:19.845Z,11.50
2023-04-10T08:29:47.259Z,11.53
2023-04-10T08:32:15.091Z,10.77
2023-04-10T08:34:42.747Z,10.47
2023-04-10T08:37:12.183Z,11.40
2023-04-10T08:39:40.151Z,9.97
2023-04-10T08:42:08.254Z,11.37
2023-04-10T08:44:37.180Z,10.43
2023-04-10T08:47:07.137Z,10.07
2023-04-10T08:49:39.193Z,8.00
2023-04-10T08:52:12.502Z,9.53
2023-04-10T08:54:41.113Z,8.50
2023-04-10T08:57:10.681Z,9.43
2023-04-10T08:59:38.651Z,9.30
2023-04-10T09:02:06.822Z,9.53
2023-04-10T09:04:35.488Z,8.93
2023-04-10T09:07:03.212Z,8.73
2023-04-10T09:09:34.230Z,8.50
2023-04-10T09:12:04.381Z,7.87
2023-04-10T09:14:35.707Z,8.30
2023-04-10T09:17:13.749Z,7.73
2023-04-10T09:19:41.770Z,8.33
2023-04-10T09:22:09.659Z,7.93
2023-04-10T09:24:38.345Z,7.10
2023-04-10T09:27:06.711Z,7.87
2023-04-10T09:29:43.944Z,7.53
2023-04-10T09:32:12.464Z,9.00
2023-04-10T09:34:53.423Z,8.80
2023-04-10T09:37:22.532Z,8.20
2023-04-10T09:39:50.707Z,6.10
2023-04-10T09:42:29.379Z,7.13
2023-04-10T09:44:58.069Z,8.23
2023-04-10T09:47:25.849Z,7.80
2023-04-10T09:49:54.342Z,8.93
2023-04-10T09:52:26.111Z,8.80
2023-04-10T09:54:54.370Z,8.20
2023-04-10T09:57:22.774Z,8.10
2023-04-10T09:59:54.253Z,7.70
2023-04-10T10:02:23.458Z,7.10
2023-04-10T10:04:51.611Z,7.63
2023-04-10T10:07:20.344Z,7.33
2023-04-10T10:09:49.051Z,7.00
2023-04-10T10:12:17.926Z,7.03
2023-04-10T10:14:55.421Z,6.40
2023-04-10T10:17:24.827Z,6.67
2023-04-10T10:20:02.280Z,6.90
2023-04-10T10:22:30.287Z,6.87
2023-04-10T10:24:59.838Z,10.03
2023-04-10T10:27:29.657Z,4.90
2023-04-10T10:30:02.947Z,7.03
2023-04-10T10:32:34.919Z,7.30
2023-04-10T10:35:07.818Z,6.70
2023-04-10T10:37:35.705Z,6.33
2023-04-10T10:40:13.308Z,6.67
2023-04-10T10:42:59.463Z,6.40
2023-04-10T10:45:40.726Z,6.77
2023-04-10T10:48:08.544Z,5.93
2023-04-10T10:50:53.399Z,6.93
2023-04-10T10:53:33.851Z,6.00
2023-04-10T10:56:19.589Z,6.63
2023-04-10T10:58:47.902Z,6.47
2023-04-10T11:01:15.843Z,6.23
2023-04-10T11:03:47.142Z,6.30
2023-04-10T11:06:19.557Z,4.70
2023-04-10T11:08:49.517Z,6.00
2023-04-10T11:11:18.219Z,5.13
2023-04-10T11:13:52.192Z,5.60
2023-04-10T11:16:21.106Z,6.10
2023-04-10T11:19:02.634Z,5.00
2023-04-10T11:21:34.265Z,6.40
2023-04-10T11:24:01.743Z,5.13
2023-04-10T11:26:39.289Z,5.50
2023-04-10T11:29:07.998Z,6.03
2023-04-10T11:31:35.626Z,5.90
2023-04-10T11:34:04.337Z,5.33
2023-04-10T11:36:32.520Z,5.20
2023-04-10T11:39:09.143Z,5.50
2023-04-10T11:41:37.717Z,6.00
2023-04-10T11:44:06.939Z,6.40
2023-04-10T11:46:38.428Z,5.50
2023-04-10T11:49:06.546Z,5.40
2023-04-10T11:51:34.281Z,9.87
2023-04-10T11:54:06.136Z,6.93
2023-04-10T11:56:33.672Z,6.07
2023-04-10T11:59:07.113Z,5.70
2023-04-10T12:01:34.872Z,5.10
2023-04-10T12:04:02.595Z,5.13
2023-04-10T12:06:31.759Z,6.00
2023-04-10T12:08:59.518Z,6.77
2023-04-10T12:11:28.774Z,5.57
2023-04-10T12:13:56.999Z,5.07
2023-04-10T12:16:25.857Z,5.00
2023-04-10T12:18:53.926Z,4.80
2023-04-10T12:21:21.643Z,5.17
2023-04-10T12:23:49.025Z,3.83
2023-04-10T12:26:17.690Z,5.20
2023-04-10T12:28:53.638Z,5.60
2023-04-10T12:31:28.198Z,5.40
2023-04-10T12:33:57.741Z,4.57
2023-04-10T12:36:29.220Z,4.70
2023-04-10T12:38:57.693Z,3.87
2023-04-10T12:41:27.248Z,5.43
2023-04-10T12:44:13.456Z,4.97
2023-04-10T12:46:41.853Z,5.10
2023-04-10T12:49:16.937Z,5.50
2023-04-10T12:51:52.299Z,5.60
2023-04-10T12:54:33.523Z,5.43
2023-04-10T12:57:03.672Z,4.90
2023-04-10T12:59:31.469Z,5.10
2023-04-10T13:01:58.898Z,5.53
2023-04-10T13:04:27.202Z,5.33
2023-04-10T13:06:54.584Z,5.27
2023-04-10T13:09:22.272Z,4.90
2023-04-10T13:11:51.991Z,4.73
2023-04-10T13:14:19.789Z,5.00
2023-04-10T13:16:47.060Z,4.30
2023-04-10T13:19:14.404Z,4.37
2023-04-10T13:21:41.595Z,3.73
2023-04-10T13:24:08.766Z,4.43
2023-04-10T13:26:36.226Z,3.93
2023-04-10T13:29:03.413Z,4.00
2023-04-10T13:31:30.691Z,4.33
2023-04-10T13:33:57.906Z,7.03
2023-04-10T13:36:26.032Z,4.07
2023-04-10T13:38:54.125Z,5.80
2023-04-10T13:41:21.888Z,5.17
2023-04-10T13:43:49.213Z,4.67
2023-04-10T13:46:17.390Z,4.20
2023-04-10T13:48:44.618Z,4.83
2023-04-10T13:51:11.833Z,5.03
2023-04-10T13:53:39.168Z,5.03
2023-04-10T13:56:07.173Z,4.40
2023-04-10T13:58:34.496Z,5.00
2023-04-10T14:01:02.786Z,4.67
2023-04-10T14:03:30.114Z,5.70
2023-04-10T14:05:57.433Z,5.83
2023-04-10T14:08:24.617Z,6.23
2023-04-10T14:10:52.024Z,5.50
2023-04-10T14:13:20.519Z,4.80
2023-04-10T14:15:48.218Z,6.00
2023-04-10T14:18:18.184Z,4.90
2023-04-10T14:20:45.741Z,5.57
2023-04-10T14:23:18.026Z,6.07
2023-04-10T14:25:46.824Z,5.93
2023-04-10T14:28:17.659Z,5.27
2023-04-10T14:30:45.752Z,6.93
2023-04-10T14:33:13.021Z,6.33
2023-04-10T14:35:44.570Z,5.90
2023-04-10T14:38:12.580Z,6.43
2023-04-10T14:40:43.630Z,6.63
2023-04-10T14:43:11.492Z,6.93
2023-04-10T14:45:38.650Z,5.50
2023-04-10T14:48:06.134Z,8.00
2023-04-10T14:50:33.614Z,6.93
2023-04-10T14:53:00.863Z,6.27
2023-04-10T14:55:31.019Z,6.10
2023-04-10T14:57:58.799Z,6.30
2023-04-10T15:00:26.706Z,6.27
2023-04-10T15:02:54.218Z,6.70
2023-04-10T15:05:22.829Z,5.80
2023-04-10T15:07:50.037Z,6.10
2023-04-10T15:10:42.944Z,8.20
2023-04-10T15:13:10.174Z,4.40
2023-04-10T15:15:37.373Z,5.53
2023-04-10T15:18:04.650Z,4.77
2023-04-10T15:20:31.926Z,5.17
2023-04-10T15:22:59.107Z,5.30
2023-04-10T15:25:26.251Z,6.03
2023-04-10T15:27:57.561Z,4.37
2023-04-10T15:30:25.362Z,5.23
2023-04-10T15:32:53.167Z,4.63
2023-04-10T15:35:21.096Z,4.80
2023-04-10T15:37:48.627Z,5.13
2023-04-10T15:40:17.149Z,5.50
2023-04-10T15:42:44.520Z,7.33
2023-04-10T15:45:11.706Z,4.53
2023-04-10T15:47:39.430Z,5.00
2023-04-10T15:50:09.042Z,4.23
2023-04-10T15:52:37.448Z,4.40
2023-04-10T15:55:05.615Z,3.77
2023-04-10T15:57:32.811Z,4.20
2023-04-10T16:00:02.095Z,4.20
2023-04-10T16:02:32.349Z,3.00
2023-04-10T16:04:59.829Z,3.90
2023-04-10T16:07:27.313Z,4.23
2023-04-10T16:09:56.523Z,4.83
2023-04-10T16:12:23.689Z,3.87
2023-04-10T16:14:51.757Z,4.27
2023-04-10T16:17:19.057Z,3.80
2023-04-10T16:19:46.303Z,4.10
2023-04-10T16:22:13.511Z,4.43
2023-04-10T16:24:40.703Z,4.20
2023-04-10T16:27:08.257Z,3.93
2023-04-10T16:29:36.037Z,3.53
2023-04-10T16:32:03.670Z,4.70
2023-04-10T16:34:30.846Z,4.03
2023-04-10T16:36:58.718Z,4.50
2023-04-10T16:39:26.637Z,4.00
2023-04-10T16:41:53.801Z,4.10
2023-04-10T16:44:21.628Z,3.57
2023-04-10T16:46:48.966Z,4.23
2023-04-10T16:49:16.233Z,6.47
2023-04-10T16:51:43.490Z,5.00
2023-04-10T16:54:10.759Z,4.20
2023-04-10T16:56:38.076Z,3.97
2023-04-10T16:59:05.450Z,5.00
2023-04-10T17:01:35.104Z,4.10
2023-04-10T17:04:02.515Z,4.90
2023-04-10T17:06:29.917Z,4.53
2023-04-10T17:08:57.649Z,5.13
2023-04-10T17:11:25.489Z,5.37
2023-04-10T17:13:52.801Z,4.93
2023-04-10T17:16:20.175Z,4.30
2023-04-10T17:18:47.520Z,4.47
2023-04-10T17:21:15.195Z,4.50
2023-04-10T17:23:43.382Z,4.57
2023-04-10T17:26:14.935Z,4.33
2023-04-10T17:28:46.286Z,5.83
2023-04-10T17:31:15.051Z,4.40
2023-04-10T17:33:43.037Z,4.47
2023-04-10T17:36:12.227Z,4.70
2023-04-10T17:38:41.094Z,4.40
2023-04-10T17:41:09.544Z,4.30
2023-04-10T17:43:37.268Z,4.73
2023-04-10T17:46:04.845Z,4.53
2023-04-10T17:48:34.236Z,4.83
2023-04-10T17:51:09.904Z,5.20
2023-04-10T17:53:37.292Z,4.20
2023-04-10T17:56:04.906Z,5.10
2023-04-10T17:58:32.308Z,6.00
2023-04-10T18:00:59.678Z,4.90
2023-04-10T18:03:27.137Z,7.07
2023-04-10T18:05:55.525Z,6.87
2023-04-10T18:08:23.459Z,4.93
2023-04-10T18:10:50.928Z,5.27
2023-04-10T18:13:18.331Z,5.13
2023-04-10T18:15:45.732Z,4.70
2023-04-10T18:18:13.239Z,5.83
2023-04-10T18:20:40.658Z,4.77
2023-04-10T18:23:08.224Z,4.80
2023-04-10T18:25:36.013Z,5.50
2023-04-10T18:30:33.738Z,4.67
2023-04-10T18:33:03.153Z,5.00
2023-04-10T18:35:31.935Z,4.60
2023-04-10T18:37:59.274Z,4.30
2023-04-10T18:40:26.718Z,4.07
2023-04-10T18:42:54.230Z,4.63
2023-04-10T18:45:21.559Z,6.00
2023-04-10T18:47:48.919Z,4.20
2023-04-10T18:50:16.446Z,3.93
2023-04-10T18:52:43.767Z,4.47
2023-04-10T18:55:11.148Z,4.30
2023-04-10T18:57:38.561Z,4.47
2023-04-10T19:00:08.116Z,4.10
2023-04-10T19:02:35.688Z,4.70
2023-04-10T19:05:03.329Z,4.50
2023-04-10T19:07:32.662Z,4.17
2023-04-10T19:09:59.985Z,3.77
2023-04-10T19:12:27.289Z,3.40
2023-04-10T19:14:54.679Z,4.70
2023-04-10T19:17:24.726Z,3.30
2023-04-10T19:19:53.138Z,4.43
2023-04-10T19:22:20.414Z,3.87
2023-04-10T19:24:47.827Z,3.57
2023-04-10T19:27:15.512Z,4.53
2023-04-10T19:29:43.868Z,4.20
2023-04-10T19:32:11.813Z,3.80
2023-04-10T19:34:39.205Z,4.23
2023-04-10T19:37:06.560Z,3.93
2023-04-10T19:39:33.904Z,4.10
2023-04-10T19:42:01.856Z,5.27
2023-04-10T19:44:29.190Z,3.57
2023-04-10T19:46:57.164Z,3.93
2023-04-10T19:49:27.135Z,3.50
2023-04-10T19:51:56.584Z,3.40
2023-04-10T19:54:25.176Z,3.90
2023-04-10T19:56:52.493Z,3.70
2023-04-10T19:59:21.673Z,4.00
2023-04-10T20:01:49.518Z,3.77
2023-04-10T20:04:17.636Z,3.43
2023-04-10T20:06:45.086Z,4.33
2023-04-10T20:09:12.439Z,4.23
2023-04-10T20:11:39.741Z,3.10
2023-04-10T20:14:07.197Z,5.20
2023-04-10T20:16:34.620Z,3.53
2023-04-10T20:19:03.434Z,2.70
2023-04-10T20:21:32.026Z,3.77
2023-04-10T20:23:59.678Z,3.63
2023-04-10T20:26:26.995Z,3.57
2023-04-10T20:28:55.116Z,3.63
2023-04-10T20:31:22.781Z,4.23
2023-04-10T20:33:50.266Z,3.03
2023-04-10T20:36:17.978Z,3.37
2023-04-10T20:38:45.509Z,3.97
2023-04-10T20:41:13.471Z,2.93
2023-04-10T20:43:40.880Z,5.80
2023-04-10T20:46:08.886Z,3.70
2023-04-10T20:48:38.013Z,3.60
2023-04-10T20:51:06.349Z,3.53
2023-04-10T20:53:33.831Z,4.03
2023-04-10T20:56:02.572Z,3.17
2023-04-10T20:58:31.395Z,3.50
2023-04-10T21:00:58.617Z,2.60
2023-04-10T21:03:26.034Z,3.20
2023-04-10T21:05:54.210Z,3.17
2023-04-10T21:08:21.926Z,5.20
2023-04-10T21:10:49.249Z,3.10
2023-04-10T21:13:16.598Z,4.60
2023-04-10T21:15:44.576Z,3.00
2023-04-10T21:18:12.170Z,3.30
2023-04-10T21:20:39.348Z,3.27
2023-04-10T21:23:06.660Z,4.00
2023-04-10T21:25:35.789Z,3.20
2023-04-10T21:28:03.079Z,2.90
2023-04-10T21:30:30.467Z,5.83
2023-04-10T21:32:57.844Z,4.23
2023-04-10T21:35:25.109Z,4.50
2023-04-10T21:37:58.391Z,3.17
2023-04-10T21:40:33.722Z,2.80
2023-04-10T21:43:02.138Z,1.60
2023-04-10T21:45:34.296Z,2.80
2023-04-10T21:48:02.496Z,3.00
2023-04-10T21:50:29.779Z,3.10
2023-04-10T21:52:57.323Z,3.07
2023-04-10T21:55:24.500Z,3.73
2023-04-10T21:57:51.954Z,3.20
2023-04-10T22:00:21.279Z,4.60
2023-04-10T22:02:50.552Z,5.63
2023-04-10T22:05:17.805Z,6.10
2023-04-10T22:07:47.186Z,4.90
2023-04-10T22:10:14.509Z,4.70
2023-04-10T22:12:41.751Z,6.47
2023-04-10T22:15:09.643Z,10.00
2023-04-10T22:17:36.859Z,5.27
2023-04-10T22:20:04.436Z,5.23
2023-04-10T22:22:31.672Z,5.37
2023-04-10T22:24:58.972Z,5.33
2023-04-10T22:27:26.238Z,7.30
2023-04-10T22:30:03.288Z,6.30
2023-04-10T22:32:32.103Z,7.03
2023-04-10T22:35:00.558Z,8.87
2023-04-10T22:37:28.513Z,5.93
2023-04-10T22:39:56.525Z,10.37
2023-04-10T22:42:23.963Z,7.27
2023-04-10T22:44:51.671Z,5.20
2023-04-10T22:47:19.011Z,6.63
2023-04-10T22:49:46.172Z,7.20
2023-04-10T22:52:13.928Z,6.30
2023-04-10T22:54:41.520Z,5.97
2023-04-10T22:57:09.079Z,7.47
2023-04-10T22:59:37.395Z,5.63
2023-04-10T23:02:05.218Z,6.33
2023-04-10T23:04:32.666Z,6.23
2023-04-10T23:07:00.650Z,9.57
2023-04-10T23:09:27.873Z,7.17
2023-04-10T23:11:55.010Z,6.20
2023-04-10T23:14:22.362Z,4.53
2023-04-10T23:16:50.038Z,5.10
2023-04-10T23:19:18.697Z,5.10
2023-04-10T23:21:46.833Z,8.50
2023-04-10T23:24:13.988Z,6.10
2023-04-10T23:26:41.301Z,5.53
2023-04-10T23:29:08.877Z,5.87
2023-04-10T23:31:36.371Z,4.70
2023-04-10T23:34:03.721Z,4.10
2023-04-10T23:36:31.549Z,5.73
2023-04-10T23:38:58.791Z,4.97
2023-04-10T23:41:25.969Z,5.80
2023-04-10T23:43:53.152Z,6.43
2023-04-10T23:46:20.560Z,5.60
2023-04-10T23:48:47.757Z,4.83
2023-04-10T23:51:14.946Z,4.63
2023-04-10T23:53:43.246Z,7.50
2023-04-10T23:56:11.711Z,4.33
2023-04-10T23:58:38.859Z,6.57
